Orlando International Airport
KMCO : rendu visible

Aérodrome :











RETROUVEZ-NOUS SUR...

 
LOGIN :

S'inscrire | Disclaimer

   EN    FR    IT 

 









Légende :    VFR   VFR Marginal   IFR   IFR Intensif   IFR Très Intensif
Visi : 
Plafond : 
>= 8 km
>= 3000ft
5 à 8 km
1000 à 3000 ft
1500m à 5 km
500 à 1000 ft
800 à 1500m
200 à 500 ft
< 800m
< 200 ft
Symboles :   Orages  Brouillard  Fortes neiges  Fortes précipitations  Vent > 20 kt






- Altitude de l'aérodrome : 96 ft
- Code IATA : MCO


KMCO - Orlando International

DERNIER METAR :
  • 030853Z 00000KT 10SM FEW070 SCT250 26/24 A2992 RMK AO2 SLP131 T02560239 55004

METARs EXPIRÉS :
  • 030753Z 23004KT 10SM FEW250 26/23 A2992 RMK AO2 SLP129 T02560233
  • 030653Z 23003KT 10SM FEW250 26/23 A2992 RMK AO2 SLP131 T02610233

TAF KMCO
Valide du 03 à 09h jusqu'au 04 à 12h UTC


030856Z 0309/0412 23005KT P6SM FEW070 SCT250
FM031500 24008KT P6SM VCSH SCT030 BKN250
FM031700 25010KT P6SM VCTS SCT030CB BKN050
TEMPO 0318/0321 3SM TSRA BKN030CB
FM032300 25008KT P6SM VCSH SCT030 BKN050
FM040200 24004KT P6SM SCT040 BKN250
FIR KZMA / Amérique du Nord



MET'MAP, la Météo Aéronautique d'un coup d'oeil ! - Copyright ORBIFLY Décembre 2007 - Disclaimer

ORBIFLY MET'MAP TEAM :

Programmation & Développement : Alexandra Zaïnal
Sur une idée originale de : Baudouin d'Aumeries
Assistance à la programmation : Marc-Olivier Méhu
Soutien technique & logistique : Manuel Goepfert

Contact : metmap@orbifly.com




SOURCES & CREDITS :

   NOAA       Earth
Advisory